sensor_id;sensor_type;location;lat;lon;timestamp;P1;durP1;ratioP1;P2;durP2;ratioP2
56517;SDS011;42419;48.760;2.322;2023-05-02T00:00:17;3.50;;;3.17;;
56517;SDS011;42419;48.760;2.322;2023-05-02T00:02:42;5.03;;;3.57;;
56517;SDS011;42419;48.760;2.322;2023-05-02T00:05:08;4.77;;;3.60;;
56517;SDS011;42419;48.760;2.322;2023-05-02T00:07:33;3.87;;;3.47;;
56517;SDS011;42419;48.760;2.322;2023-05-02T00:09:59;5.40;;;3.20;;
56517;SDS011;42419;48.760;2.322;2023-05-02T00:12:26;4.17;;;3.50;;
56517;SDS011;42419;48.760;2.322;2023-05-02T00:14:52;4.00;;;3.50;;
56517;SDS011;42419;48.760;2.322;2023-05-02T00:17:18;3.80;;;2.90;;
56517;SDS011;42419;48.760;2.322;2023-05-02T00:19:44;4.13;;;3.03;;
56517;SDS011;42419;48.760;2.322;2023-05-02T00:22:10;3.20;;;2.90;;
56517;SDS011;42419;48.760;2.322;2023-05-02T00:24:35;4.50;;;3.27;;
56517;SDS011;42419;48.760;2.322;2023-05-02T00:27:01;3.90;;;3.50;;
56517;SDS011;42419;48.760;2.322;2023-05-02T00:29:26;4.93;;;2.70;;
56517;SDS011;42419;48.760;2.322;2023-05-02T00:31:51;5.70;;;3.50;;
56517;SDS011;42419;48.760;2.322;2023-05-02T00:34:17;4.37;;;3.40;;
56517;SDS011;42419;48.760;2.322;2023-05-02T00:36:42;4.53;;;3.20;;
56517;SDS011;42419;48.760;2.322;2023-05-02T00:39:07;2.60;;;2.40;;
56517;SDS011;42419;48.760;2.322;2023-05-02T00:41:33;3.00;;;2.70;;
56517;SDS011;42419;48.760;2.322;2023-05-02T00:43:58;4.27;;;3.30;;
56517;SDS011;42419;48.760;2.322;2023-05-02T00:46:24;3.97;;;3.57;;
56517;SDS011;42419;48.760;2.322;2023-05-02T00:48:49;2.93;;;2.53;;
56517;SDS011;42419;48.760;2.322;2023-05-02T00:51:14;3.10;;;2.80;;
56517;SDS011;42419;48.760;2.322;2023-05-02T00:53:40;3.17;;;2.87;;
56517;SDS011;42419;48.760;2.322;2023-05-02T00:56:06;3.60;;;3.30;;
56517;SDS011;42419;48.760;2.322;2023-05-02T00:58:32;4.23;;;3.00;;
56517;SDS011;42419;48.760;2.322;2023-05-02T01:09:05;3.20;;;2.90;;
56517;SDS011;42419;48.760;2.322;2023-05-02T01:11:41;3.20;;;2.90;;
56517;SDS011;42419;48.760;2.322;2023-05-02T01:14:15;3.80;;;3.20;;
56517;SDS011;42419;48.760;2.322;2023-05-02T01:16:42;3.50;;;2.77;;
56517;SDS011;42419;48.760;2.322;2023-05-02T01:19:11;3.80;;;3.27;;
56517;SDS011;42419;48.760;2.322;2023-05-02T01:21:40;3.30;;;3.00;;
56517;SDS011;42419;48.760;2.322;2023-05-02T01:24:14;3.23;;;2.93;;
56517;SDS011;42419;48.760;2.322;2023-05-02T01:26:58;3.53;;;3.03;;
56517;SDS011;42419;48.760;2.322;2023-05-02T01:29:36;4.93;;;3.43;;
56517;SDS011;42419;48.760;2.322;2023-05-02T01:32:04;3.17;;;2.93;;
56517;SDS011;42419;48.760;2.322;2023-05-02T01:34:31;4.80;;;3.40;;
56517;SDS011;42419;48.760;2.322;2023-05-02T01:36:59;3.97;;;3.20;;
56517;SDS011;42419;48.760;2.322;2023-05-02T01:39:26;2.93;;;2.57;;
56517;SDS011;42419;48.760;2.322;2023-05-02T01:41:52;3.17;;;2.87;;
56517;SDS011;42419;48.760;2.322;2023-05-02T01:44:20;3.20;;;2.87;;
56517;SDS011;42419;48.760;2.322;2023-05-02T01:46:47;3.53;;;3.23;;
56517;SDS011;42419;48.760;2.322;2023-05-02T01:49:14;3.17;;;2.87;;
56517;SDS011;42419;48.760;2.322;2023-05-02T01:51:43;5.27;;;3.23;;
56517;SDS011;42419;48.760;2.322;2023-05-02T01:54:12;4.90;;;2.73;;
56517;SDS011;42419;48.760;2.322;2023-05-02T01:56:38;3.80;;;3.03;;
56517;SDS011;42419;48.760;2.322;2023-05-02T01:59:05;3.30;;;3.00;;
56517;SDS011;42419;48.760;2.322;2023-05-02T02:01:37;3.07;;;2.87;;
56517;SDS011;42419;48.760;2.322;2023-05-02T02:04:04;3.30;;;2.93;;
56517;SDS011;42419;48.760;2.322;2023-05-02T02:06:31;3.83;;;2.83;;
56517;SDS011;42419;48.760;2.322;2023-05-02T02:08:57;3.13;;;2.83;;
56517;SDS011;42419;48.760;2.322;2023-05-02T02:14:39;4.07;;;2.80;;
56517;SDS011;42419;48.760;2.322;2023-05-02T02:17:11;3.60;;;3.30;;
56517;SDS011;42419;48.760;2.322;2023-05-02T02:19:40;3.53;;;2.80;;
56517;SDS011;42419;48.760;2.322;2023-05-02T02:22:07;2.97;;;2.67;;
56517;SDS011;42419;48.760;2.322;2023-05-02T02:24:34;3.70;;;2.87;;
56517;SDS011;42419;48.760;2.322;2023-05-02T02:27:02;4.97;;;3.63;;
56517;SDS011;42419;48.760;2.322;2023-05-02T02:29:27;5.13;;;3.23;;
56517;SDS011;42419;48.760;2.322;2023-05-02T02:31:53;3.30;;;3.00;;
56517;SDS011;42419;48.760;2.322;2023-05-02T02:34:19;4.40;;;2.90;;
56517;SDS011;42419;48.760;2.322;2023-05-02T02:37:03;3.27;;;2.97;;
56517;SDS011;42419;48.760;2.322;2023-05-02T02:50:41;4.23;;;2.80;;
56517;SDS011;42419;48.760;2.322;2023-05-02T02:53:19;3.07;;;2.77;;
56517;SDS011;42419;48.760;2.322;2023-05-02T03:01:19;3.33;;;2.97;;
56517;SDS011;42419;48.760;2.322;2023-05-02T03:03:47;3.70;;;2.87;;
56517;SDS011;42419;48.760;2.322;2023-05-02T03:06:14;4.37;;;2.80;;
56517;SDS011;42419;48.760;2.322;2023-05-02T03:08:40;4.37;;;3.40;;
56517;SDS011;42419;48.760;2.322;2023-05-02T03:11:07;4.17;;;2.93;;
56517;SDS011;42419;48.760;2.322;2023-05-02T03:13:33;3.33;;;2.40;;
56517;SDS011;42419;48.760;2.322;2023-05-02T03:16:41;4.13;;;2.93;;
56517;SDS011;42419;48.760;2.322;2023-05-02T03:18:53;3.23;;;2.93;;
56517;SDS011;42419;48.760;2.322;2023-05-02T03:21:18;4.03;;;2.70;;
56517;SDS011;42419;48.760;2.322;2023-05-02T03:23:44;2.97;;;2.77;;
56517;SDS011;42419;48.760;2.322;2023-05-02T03:26:09;3.60;;;3.27;;
56517;SDS011;42419;48.760;2.322;2023-05-02T03:28:35;4.10;;;2.70;;
56517;SDS011;42419;48.760;2.322;2023-05-02T03:31:00;3.50;;;3.20;;
56517;SDS011;42419;48.760;2.322;2023-05-02T03:33:26;3.40;;;3.10;;
56517;SDS011;42419;48.760;2.322;2023-05-02T03:35:51;5.53;;;3.27;;
56517;SDS011;42419;48.760;2.322;2023-05-02T03:38:16;6.87;;;3.20;;
56517;SDS011;42419;48.760;2.322;2023-05-02T03:40:41;4.20;;;2.70;;
56517;SDS011;42419;48.760;2.322;2023-05-02T03:43:07;3.43;;;3.00;;
56517;SDS011;42419;48.760;2.322;2023-05-02T03:45:33;4.50;;;2.97;;
56517;SDS011;42419;48.760;2.322;2023-05-02T03:47:58;3.27;;;2.70;;
56517;SDS011;42419;48.760;2.322;2023-05-02T03:50:24;3.67;;;2.47;;
56517;SDS011;42419;48.760;2.322;2023-05-02T03:52:50;2.77;;;2.40;;
56517;SDS011;42419;48.760;2.322;2023-05-02T03:55:15;3.80;;;2.90;;
56517;SDS011;42419;48.760;2.322;2023-05-02T03:57:40;3.43;;;3.13;;
56517;SDS011;42419;48.760;2.322;2023-05-02T04:00:06;3.80;;;3.20;;
56517;SDS011;42419;48.760;2.322;2023-05-02T04:02:31;3.03;;;2.80;;
56517;SDS011;42419;48.760;2.322;2023-05-02T04:04:57;3.50;;;2.80;;
56517;SDS011;42419;48.760;2.322;2023-05-02T04:07:22;3.40;;;3.10;;
56517;SDS011;42419;48.760;2.322;2023-05-02T04:09:49;3.43;;;3.13;;
56517;SDS011;42419;48.760;2.322;2023-05-02T04:12:15;3.37;;;2.73;;
56517;SDS011;42419;48.760;2.322;2023-05-02T04:14:40;3.27;;;2.97;;
56517;SDS011;42419;48.760;2.322;2023-05-02T04:17:05;3.47;;;3.20;;
56517;SDS011;42419;48.760;2.322;2023-05-02T04:19:31;3.13;;;2.60;;
56517;SDS011;42419;48.760;2.322;2023-05-02T04:21:56;3.30;;;3.00;;
56517;SDS011;42419;48.760;2.322;2023-05-02T04:24:22;3.10;;;2.80;;
56517;SDS011;42419;48.760;2.322;2023-05-02T04:26:47;3.63;;;3.07;;
56517;SDS011;42419;48.760;2.322;2023-05-02T04:29:13;3.97;;;3.03;;
56517;SDS011;42419;48.760;2.322;2023-05-02T04:31:38;3.50;;;3.20;;
56517;SDS011;42419;48.760;2.322;2023-05-02T04:34:05;3.83;;;3.00;;
56517;SDS011;42419;48.760;2.322;2023-05-02T04:36:30;3.40;;;2.80;;
56517;SDS011;42419;48.760;2.322;2023-05-02T04:38:56;5.10;;;2.90;;
56517;SDS011;42419;48.760;2.322;2023-05-02T04:41:22;3.40;;;3.10;;
56517;SDS011;42419;48.760;2.322;2023-05-02T04:43:47;3.10;;;2.80;;
56517;SDS011;42419;48.760;2.322;2023-05-02T04:46:12;3.47;;;3.17;;
56517;SDS011;42419;48.760;2.322;2023-05-02T04:48:38;3.50;;;2.77;;
56517;SDS011;42419;48.760;2.322;2023-05-02T04:51:06;3.30;;;3.00;;
56517;SDS011;42419;48.760;2.322;2023-05-02T04:53:33;3.40;;;2.90;;
56517;SDS011;42419;48.760;2.322;2023-05-02T04:55:59;2.50;;;2.30;;
56517;SDS011;42419;48.760;2.322;2023-05-02T04:58:24;5.20;;;2.90;;
56517;SDS011;42419;48.760;2.322;2023-05-02T05:00:49;5.83;;;3.23;;
56517;SDS011;42419;48.760;2.322;2023-05-02T05:03:15;7.03;;;3.60;;
56517;SDS011;42419;48.760;2.322;2023-05-02T05:05:40;9.50;;;4.07;;
56517;SDS011;42419;48.760;2.322;2023-05-02T05:08:05;10.20;;;4.53;;
56517;SDS011;42419;48.760;2.322;2023-05-02T05:10:31;9.53;;;3.73;;
56517;SDS011;42419;48.760;2.322;2023-05-02T05:12:56;10.80;;;4.20;;
56517;SDS011;42419;48.760;2.322;2023-05-02T05:15:22;8.33;;;4.20;;
56517;SDS011;42419;48.760;2.322;2023-05-02T05:17:49;9.30;;;4.03;;
56517;SDS011;42419;48.760;2.322;2023-05-02T05:20:15;7.13;;;3.90;;
56517;SDS011;42419;48.760;2.322;2023-05-02T05:22:41;16.03;;;4.03;;
56517;SDS011;42419;48.760;2.322;2023-05-02T05:25:09;20.13;;;4.30;;
56517;SDS011;42419;48.760;2.322;2023-05-02T05:27:35;7.73;;;4.27;;
56517;SDS011;42419;48.760;2.322;2023-05-02T05:30:02;7.80;;;4.27;;
56517;SDS011;42419;48.760;2.322;2023-05-02T05:32:33;8.40;;;3.50;;
56517;SDS011;42419;48.760;2.322;2023-05-02T05:34:59;8.33;;;3.60;;
56517;SDS011;42419;48.760;2.322;2023-05-02T05:37:25;6.40;;;4.57;;
56517;SDS011;42419;48.760;2.322;2023-05-02T05:39:50;6.87;;;4.20;;
56517;SDS011;42419;48.760;2.322;2023-05-02T05:42:16;5.70;;;4.37;;
56517;SDS011;42419;48.760;2.322;2023-05-02T05:44:41;5.87;;;4.30;;
56517;SDS011;42419;48.760;2.322;2023-05-02T05:47:06;10.40;;;4.57;;
56517;SDS011;42419;48.760;2.322;2023-05-02T05:49:31;6.50;;;4.13;;
56517;SDS011;42419;48.760;2.322;2023-05-02T05:51:57;8.37;;;3.60;;
56517;SDS011;42419;48.760;2.322;2023-05-02T05:54:22;6.07;;;3.43;;
56517;SDS011;42419;48.760;2.322;2023-05-02T05:56:48;7.20;;;4.23;;
56517;SDS011;42419;48.760;2.322;2023-05-02T05:59:13;7.23;;;3.80;;
56517;SDS011;42419;48.760;2.322;2023-05-02T06:01:39;4.90;;;4.17;;
56517;SDS011;42419;48.760;2.322;2023-05-02T06:04:04;10.07;;;4.63;;
56517;SDS011;42419;48.760;2.322;2023-05-02T06:06:31;6.60;;;4.63;;
56517;SDS011;42419;48.760;2.322;2023-05-02T06:08:57;8.77;;;4.70;;
56517;SDS011;42419;48.760;2.322;2023-05-02T06:11:22;9.20;;;4.93;;
56517;SDS011;42419;48.760;2.322;2023-05-02T06:13:51;6.10;;;4.60;;
56517;SDS011;42419;48.760;2.322;2023-05-02T06:16:17;4.97;;;4.53;;
56517;SDS011;42419;48.760;2.322;2023-05-02T06:18:42;8.47;;;5.20;;
56517;SDS011;42419;48.760;2.322;2023-05-02T06:21:08;8.33;;;5.13;;
56517;SDS011;42419;48.760;2.322;2023-05-02T06:23:33;21.30;;;5.20;;
56517;SDS011;42419;48.760;2.322;2023-05-02T06:25:59;6.60;;;5.53;;
56517;SDS011;42419;48.760;2.322;2023-05-02T06:28:25;5.50;;;4.80;;
56517;SDS011;42419;48.760;2.322;2023-05-02T06:31:01;12.30;;;5.27;;
56517;SDS011;42419;48.760;2.322;2023-05-02T06:33:28;8.17;;;5.40;;
56517;SDS011;42419;48.760;2.322;2023-05-02T06:35:53;8.20;;;5.23;;
56517;SDS011;42419;48.760;2.322;2023-05-02T06:38:19;7.20;;;5.60;;
56517;SDS011;42419;48.760;2.322;2023-05-02T06:40:44;7.60;;;5.17;;
56517;SDS011;42419;48.760;2.322;2023-05-02T06:43:10;7.13;;;5.60;;
56517;SDS011;42419;48.760;2.322;2023-05-02T06:45:36;9.33;;;5.80;;
56517;SDS011;42419;48.760;2.322;2023-05-02T06:48:02;6.67;;;6.00;;
56517;SDS011;42419;48.760;2.322;2023-05-02T06:50:28;7.17;;;4.83;;
56517;SDS011;42419;48.760;2.322;2023-05-02T06:52:53;6.27;;;5.67;;
56517;SDS011;42419;48.760;2.322;2023-05-02T06:55:19;11.07;;;5.53;;
56517;SDS011;42419;48.760;2.322;2023-05-02T06:57:44;7.10;;;5.13;;
56517;SDS011;42419;48.760;2.322;2023-05-02T07:00:10;7.33;;;5.37;;
56517;SDS011;42419;48.760;2.322;2023-05-02T07:02:36;6.00;;;5.40;;
56517;SDS011;42419;48.760;2.322;2023-05-02T07:05:01;7.10;;;5.40;;
56517;SDS011;42419;48.760;2.322;2023-05-02T07:07:27;7.40;;;5.90;;
56517;SDS011;42419;48.760;2.322;2023-05-02T07:09:52;7.73;;;6.13;;
56517;SDS011;42419;48.760;2.322;2023-05-02T07:12:17;7.83;;;6.00;;
56517;SDS011;42419;48.760;2.322;2023-05-02T07:14:43;6.03;;;5.43;;
56517;SDS011;42419;48.760;2.322;2023-05-02T07:17:10;8.70;;;6.97;;
56517;SDS011;42419;48.760;2.322;2023-05-02T07:19:36;8.90;;;8.00;;
56517;SDS011;42419;48.760;2.322;2023-05-02T07:22:01;8.53;;;7.20;;
56517;SDS011;42419;48.760;2.322;2023-05-02T07:24:27;8.10;;;6.47;;
56517;SDS011;42419;48.760;2.322;2023-05-02T07:26:52;8.97;;;6.93;;
56517;SDS011;42419;48.760;2.322;2023-05-02T07:29:17;9.23;;;7.33;;
56517;SDS011;42419;48.760;2.322;2023-05-02T07:31:42;6.70;;;5.97;;
56517;SDS011;42419;48.760;2.322;2023-05-02T07:34:08;10.20;;;6.83;;
56517;SDS011;42419;48.760;2.322;2023-05-02T07:36:33;13.33;;;7.13;;
56517;SDS011;42419;48.760;2.322;2023-05-02T07:38:58;7.43;;;6.63;;
56517;SDS011;42419;48.760;2.322;2023-05-02T07:41:24;8.60;;;6.80;;
56517;SDS011;42419;48.760;2.322;2023-05-02T07:43:49;7.07;;;6.37;;
56517;SDS011;42419;48.760;2.322;2023-05-02T07:46:14;9.43;;;6.90;;
56517;SDS011;42419;48.760;2.322;2023-05-02T07:48:40;8.50;;;6.83;;
56517;SDS011;42419;48.760;2.322;2023-05-02T07:51:07;8.53;;;6.97;;
56517;SDS011;42419;48.760;2.322;2023-05-02T07:53:33;8.27;;;6.70;;
56517;SDS011;42419;48.760;2.322;2023-05-02T07:55:58;10.30;;;6.77;;
56517;SDS011;42419;48.760;2.322;2023-05-02T07:58:24;9.93;;;6.80;;
56517;SDS011;42419;48.760;2.322;2023-05-02T08:00:49;7.70;;;6.90;;
56517;SDS011;42419;48.760;2.322;2023-05-02T08:03:14;8.23;;;6.40;;
56517;SDS011;42419;48.760;2.322;2023-05-02T08:05:40;7.53;;;6.70;;
56517;SDS011;42419;48.760;2.322;2023-05-02T08:08:05;8.80;;;6.60;;
56517;SDS011;42419;48.760;2.322;2023-05-02T08:10:31;6.50;;;5.90;;
56517;SDS011;42419;48.760;2.322;2023-05-02T08:12:56;9.70;;;7.80;;
56517;SDS011;42419;48.760;2.322;2023-05-02T08:15:22;7.80;;;6.63;;
56517;SDS011;42419;48.760;2.322;2023-05-02T08:17:47;11.47;;;7.23;;
56517;SDS011;42419;48.760;2.322;2023-05-02T08:20:12;8.47;;;6.80;;
56517;SDS011;42419;48.760;2.322;2023-05-02T08:22:37;9.37;;;6.53;;
56517;SDS011;42419;48.760;2.322;2023-05-02T08:25:03;10.13;;;7.00;;
56517;SDS011;42419;48.760;2.322;2023-05-02T08:27:28;10.10;;;7.20;;
56517;SDS011;42419;48.760;2.322;2023-05-02T08:29:54;7.00;;;6.30;;
56517;SDS011;42419;48.760;2.322;2023-05-02T08:32:19;7.93;;;6.67;;
56517;SDS011;42419;48.760;2.322;2023-05-02T08:34:46;7.03;;;5.90;;
56517;SDS011;42419;48.760;2.322;2023-05-02T08:37:11;6.17;;;5.57;;
56517;SDS011;42419;48.760;2.322;2023-05-02T08:39:37;8.23;;;6.13;;
56517;SDS011;42419;48.760;2.322;2023-05-02T08:42:06;7.07;;;6.07;;
56517;SDS011;42419;48.760;2.322;2023-05-02T08:44:32;8.30;;;7.00;;
56517;SDS011;42419;48.760;2.322;2023-05-02T08:46:57;7.67;;;6.07;;
56517;SDS011;42419;48.760;2.322;2023-05-02T08:49:24;7.13;;;5.87;;
56517;SDS011;42419;48.760;2.322;2023-05-02T08:51:52;6.20;;;5.60;;
56517;SDS011;42419;48.760;2.322;2023-05-02T08:54:19;7.77;;;6.80;;
56517;SDS011;42419;48.760;2.322;2023-05-02T08:56:45;6.23;;;5.73;;
56517;SDS011;42419;48.760;2.322;2023-05-02T08:59:11;7.07;;;5.33;;
56517;SDS011;42419;48.760;2.322;2023-05-02T09:01:37;7.77;;;5.90;;
56517;SDS011;42419;48.760;2.322;2023-05-02T09:04:05;9.83;;;5.20;;
56517;SDS011;42419;48.760;2.322;2023-05-02T09:06:31;6.83;;;4.60;;
56517;SDS011;42419;48.760;2.322;2023-05-02T09:08:58;5.17;;;4.50;;
56517;SDS011;42419;48.760;2.322;2023-05-02T09:11:24;6.43;;;5.40;;
56517;SDS011;42419;48.760;2.322;2023-05-02T09:13:50;6.30;;;4.60;;
56517;SDS011;42419;48.760;2.322;2023-05-02T09:16:20;8.00;;;5.10;;
56517;SDS011;42419;48.760;2.322;2023-05-02T09:18:47;7.33;;;5.77;;
56517;SDS011;42419;48.760;2.322;2023-05-02T09:21:17;9.37;;;4.90;;
56517;SDS011;42419;48.760;2.322;2023-05-02T09:23:45;5.33;;;4.00;;
56517;SDS011;42419;48.760;2.322;2023-05-02T09:26:17;6.97;;;4.40;;
56517;SDS011;42419;48.760;2.322;2023-05-02T09:28:45;8.83;;;4.10;;
56517;SDS011;42419;48.760;2.322;2023-05-02T09:31:18;5.47;;;3.90;;
56517;SDS011;42419;48.760;2.322;2023-05-02T09:33:45;10.13;;;3.87;;
56517;SDS011;42419;48.760;2.322;2023-05-02T09:36:11;6.23;;;4.37;;
56517;SDS011;42419;48.760;2.322;2023-05-02T09:38:38;5.70;;;3.33;;
56517;SDS011;42419;48.760;2.322;2023-05-02T09:41:05;5.87;;;3.77;;
56517;SDS011;42419;48.760;2.322;2023-05-02T09:43:30;7.60;;;3.40;;
56517;SDS011;42419;48.760;2.322;2023-05-02T09:48:22;4.30;;;3.40;;
56517;SDS011;42419;48.760;2.322;2023-05-02T09:50:48;5.00;;;3.37;;
56517;SDS011;42419;48.760;2.322;2023-05-02T09:53:13;7.67;;;2.90;;
56517;SDS011;42419;48.760;2.322;2023-05-02T09:55:38;3.90;;;3.50;;
56517;SDS011;42419;48.760;2.322;2023-05-02T09:58:04;3.97;;;3.20;;
56517;SDS011;42419;48.760;2.322;2023-05-02T10:00:43;4.97;;;3.40;;
56517;SDS011;42419;48.760;2.322;2023-05-02T10:03:09;3.47;;;3.17;;
56517;SDS011;42419;48.760;2.322;2023-05-02T10:05:37;4.90;;;3.50;;
56517;SDS011;42419;48.760;2.322;2023-05-02T10:08:04;3.57;;;2.97;;
56517;SDS011;42419;48.760;2.322;2023-05-02T10:10:31;3.17;;;2.70;;
56517;SDS011;42419;48.760;2.322;2023-05-02T10:13:02;3.30;;;3.00;;
56517;SDS011;42419;48.760;2.322;2023-05-02T10:15:28;2.97;;;2.70;;
56517;SDS011;42419;48.760;2.322;2023-05-02T10:17:57;4.43;;;3.37;;
56517;SDS011;42419;48.760;2.322;2023-05-02T10:20:25;4.70;;;3.40;;
56517;SDS011;42419;48.760;2.322;2023-05-02T10:22:55;4.30;;;3.00;;
56517;SDS011;42419;48.760;2.322;2023-05-02T10:25:24;4.20;;;3.00;;
56517;SDS011;42419;48.760;2.322;2023-05-02T10:27:50;4.10;;;3.30;;
56517;SDS011;42419;48.760;2.322;2023-05-02T10:30:16;3.90;;;3.10;;
56517;SDS011;42419;48.760;2.322;2023-05-02T10:32:41;3.30;;;2.83;;
56517;SDS011;42419;48.760;2.322;2023-05-02T10:35:09;4.30;;;3.00;;
56517;SDS011;42419;48.760;2.322;2023-05-02T10:37:37;3.87;;;3.07;;
56517;SDS011;42419;48.760;2.322;2023-05-02T10:40:04;4.53;;;3.07;;
56517;SDS011;42419;48.760;2.322;2023-05-02T10:42:34;3.60;;;3.30;;
56517;SDS011;42419;48.760;2.322;2023-05-02T10:45:03;3.47;;;2.63;;
56517;SDS011;42419;48.760;2.322;2023-05-02T10:47:28;3.40;;;3.10;;
56517;SDS011;42419;48.760;2.322;2023-05-02T10:49:56;3.30;;;3.00;;
56517;SDS011;42419;48.760;2.322;2023-05-02T10:52:27;4.57;;;3.47;;
56517;SDS011;42419;48.760;2.322;2023-05-02T10:55:12;3.10;;;2.67;;
56517;SDS011;42419;48.760;2.322;2023-05-02T11:00:27;4.60;;;3.30;;
56517;SDS011;42419;48.760;2.322;2023-05-02T11:02:53;3.97;;;3.00;;
56517;SDS011;42419;48.760;2.322;2023-05-02T11:05:20;4.83;;;3.13;;
56517;SDS011;42419;48.760;2.322;2023-05-02T11:07:47;3.83;;;3.10;;
56517;SDS011;42419;48.760;2.322;2023-05-02T11:12:47;3.27;;;2.97;;
56517;SDS011;42419;48.760;2.322;2023-05-02T11:15:14;2.63;;;2.30;;
56517;SDS011;42419;48.760;2.322;2023-05-02T11:18:02;3.33;;;2.93;;
56517;SDS011;42419;48.760;2.322;2023-05-02T11:20:42;3.60;;;3.03;;
56517;SDS011;42419;48.760;2.322;2023-05-02T11:25:41;3.40;;;3.10;;
56517;SDS011;42419;48.760;2.322;2023-05-02T11:28:37;3.03;;;2.73;;
56517;SDS011;42419;48.760;2.322;2023-05-02T11:31:03;5.37;;;4.43;;
56517;SDS011;42419;48.760;2.322;2023-05-02T11:33:30;6.23;;;4.23;;
56517;SDS011;42419;48.760;2.322;2023-05-02T11:35:55;3.83;;;3.40;;
56517;SDS011;42419;48.760;2.322;2023-05-02T11:38:22;4.97;;;3.63;;
56517;SDS011;42419;48.760;2.322;2023-05-02T11:40:52;7.33;;;3.50;;
56517;SDS011;42419;48.760;2.322;2023-05-02T11:43:20;5.37;;;3.77;;
56517;SDS011;42419;48.760;2.322;2023-05-02T11:45:46;3.37;;;3.07;;
56517;SDS011;42419;48.760;2.322;2023-05-02T11:48:13;4.50;;;3.87;;
56517;SDS011;42419;48.760;2.322;2023-05-02T11:50:41;4.27;;;3.77;;
56517;SDS011;42419;48.760;2.322;2023-05-02T11:53:10;3.70;;;3.40;;
56517;SDS011;42419;48.760;2.322;2023-05-02T11:55:38;5.17;;;3.83;;
56517;SDS011;42419;48.760;2.322;2023-05-02T11:58:19;4.10;;;3.70;;
56517;SDS011;42419;48.760;2.322;2023-05-02T12:00:46;5.40;;;4.17;;
56517;SDS011;42419;48.760;2.322;2023-05-02T12:03:29;3.77;;;3.33;;
56517;SDS011;42419;48.760;2.322;2023-05-02T12:05:57;4.20;;;3.80;;
56517;SDS011;42419;48.760;2.322;2023-05-02T12:08:33;4.90;;;4.10;;
56517;SDS011;42419;48.760;2.322;2023-05-02T12:10:58;5.17;;;3.63;;
56517;SDS011;42419;48.760;2.322;2023-05-02T12:13:24;5.57;;;3.70;;
56517;SDS011;42419;48.760;2.322;2023-05-02T12:15:50;4.60;;;3.60;;
56517;SDS011;42419;48.760;2.322;2023-05-02T12:18:17;4.40;;;3.10;;
56517;SDS011;42419;48.760;2.322;2023-05-02T12:20:43;6.80;;;3.30;;
56517;SDS011;42419;48.760;2.322;2023-05-02T12:23:09;4.10;;;3.70;;
56517;SDS011;42419;48.760;2.322;2023-05-02T12:25:36;5.60;;;3.70;;
56517;SDS011;42419;48.760;2.322;2023-05-02T12:28:03;4.40;;;3.63;;
56517;SDS011;42419;48.760;2.322;2023-05-02T12:30:28;5.00;;;4.50;;
56517;SDS011;42419;48.760;2.322;2023-05-02T12:32:56;4.80;;;4.37;;
56517;SDS011;42419;48.760;2.322;2023-05-02T12:35:25;3.40;;;3.10;;
56517;SDS011;42419;48.760;2.322;2023-05-02T12:37:52;4.63;;;4.03;;
56517;SDS011;42419;48.760;2.322;2023-05-02T12:40:18;6.23;;;4.23;;
56517;SDS011;42419;48.760;2.322;2023-05-02T12:42:56;6.20;;;4.43;;
56517;SDS011;42419;48.760;2.322;2023-05-02T12:45:23;4.07;;;3.73;;
56517;SDS011;42419;48.760;2.322;2023-05-02T12:47:49;4.63;;;3.40;;
56517;SDS011;42419;48.760;2.322;2023-05-02T12:50:14;6.03;;;4.90;;
56517;SDS011;42419;48.760;2.322;2023-05-02T12:52:46;4.73;;;4.13;;
56517;SDS011;42419;48.760;2.322;2023-05-02T12:58:04;3.10;;;2.80;;
56517;SDS011;42419;48.760;2.322;2023-05-02T13:00:31;4.90;;;3.83;;
56517;SDS011;42419;48.760;2.322;2023-05-02T13:02:59;4.50;;;3.50;;
56517;SDS011;42419;48.760;2.322;2023-05-02T13:05:24;4.90;;;3.40;;
56517;SDS011;42419;48.760;2.322;2023-05-02T13:07:50;4.27;;;3.97;;
56517;SDS011;42419;48.760;2.322;2023-05-02T13:10:15;3.77;;;3.47;;
56517;SDS011;42419;48.760;2.322;2023-05-02T13:12:44;5.43;;;4.17;;
56517;SDS011;42419;48.760;2.322;2023-05-02T13:15:11;5.50;;;3.70;;
56517;SDS011;42419;48.760;2.322;2023-05-02T13:17:36;3.90;;;3.57;;
56517;SDS011;42419;48.760;2.322;2023-05-02T13:20:02;4.50;;;4.10;;
56517;SDS011;42419;48.760;2.322;2023-05-02T13:22:27;3.60;;;3.30;;
56517;SDS011;42419;48.760;2.322;2023-05-02T13:24:53;3.50;;;3.20;;
56517;SDS011;42419;48.760;2.322;2023-05-02T13:27:20;4.30;;;3.40;;
56517;SDS011;42419;48.760;2.322;2023-05-02T13:29:50;4.40;;;3.10;;
56517;SDS011;42419;48.760;2.322;2023-05-02T13:32:16;3.93;;;3.60;;
56517;SDS011;42419;48.760;2.322;2023-05-02T13:34:42;4.20;;;3.80;;
56517;SDS011;42419;48.760;2.322;2023-05-02T13:37:08;5.03;;;3.43;;
56517;SDS011;42419;48.760;2.322;2023-05-02T13:39:33;3.97;;;3.60;;
56517;SDS011;42419;48.760;2.322;2023-05-02T13:41:59;4.30;;;3.93;;
56517;SDS011;42419;48.760;2.322;2023-05-02T13:44:26;5.40;;;3.90;;
56517;SDS011;42419;48.760;2.322;2023-05-02T13:46:51;5.73;;;3.73;;
56517;SDS011;42419;48.760;2.322;2023-05-02T13:49:16;5.00;;;3.40;;
56517;SDS011;42419;48.760;2.322;2023-05-02T13:51:41;5.40;;;4.10;;
56517;SDS011;42419;48.760;2.322;2023-05-02T13:54:07;5.20;;;3.57;;
56517;SDS011;42419;48.760;2.322;2023-05-02T13:56:32;4.40;;;4.00;;
56517;SDS011;42419;48.760;2.322;2023-05-02T13:58:57;6.03;;;3.67;;
56517;SDS011;42419;48.760;2.322;2023-05-02T14:01:23;4.07;;;3.67;;
56517;SDS011;42419;48.760;2.322;2023-05-02T14:03:50;4.10;;;3.70;;
56517;SDS011;42419;48.760;2.322;2023-05-02T14:06:15;4.00;;;3.70;;
56517;SDS011;42419;48.760;2.322;2023-05-02T14:08:41;4.27;;;2.93;;
56517;SDS011;42419;48.760;2.322;2023-05-02T14:11:06;4.23;;;3.40;;
56517;SDS011;42419;48.760;2.322;2023-05-02T14:13:32;3.93;;;3.60;;
56517;SDS011;42419;48.760;2.322;2023-05-02T14:15:57;4.93;;;3.80;;
56517;SDS011;42419;48.760;2.322;2023-05-02T14:18:22;4.53;;;4.07;;
56517;SDS011;42419;48.760;2.322;2023-05-02T14:20:48;3.60;;;3.20;;
56517;SDS011;42419;48.760;2.322;2023-05-02T14:23:13;4.53;;;4.13;;
56517;SDS011;42419;48.760;2.322;2023-05-02T14:25:38;3.63;;;3.33;;
56517;SDS011;42419;48.760;2.322;2023-05-02T14:28:04;4.97;;;4.57;;
56517;SDS011;42419;48.760;2.322;2023-05-02T14:30:29;5.73;;;4.03;;
56517;SDS011;42419;48.760;2.322;2023-05-02T14:32:58;5.77;;;4.00;;
56517;SDS011;42419;48.760;2.322;2023-05-02T14:35:23;4.73;;;4.33;;
56517;SDS011;42419;48.760;2.322;2023-05-02T14:37:49;4.30;;;3.90;;
56517;SDS011;42419;48.760;2.322;2023-05-02T14:40:14;4.97;;;3.70;;
56517;SDS011;42419;48.760;2.322;2023-05-02T14:42:40;4.43;;;3.70;;
56517;SDS011;42419;48.760;2.322;2023-05-02T14:45:06;3.93;;;3.63;;
56517;SDS011;42419;48.760;2.322;2023-05-02T14:47:32;4.33;;;3.93;;
56517;SDS011;42419;48.760;2.322;2023-05-02T14:49:58;5.10;;;3.70;;
56517;SDS011;42419;48.760;2.322;2023-05-02T14:52:23;4.13;;;3.73;;
56517;SDS011;42419;48.760;2.322;2023-05-02T14:54:49;4.77;;;4.30;;
56517;SDS011;42419;48.760;2.322;2023-05-02T14:57:14;4.80;;;4.30;;
56517;SDS011;42419;48.760;2.322;2023-05-02T14:59:40;4.50;;;3.37;;
56517;SDS011;42419;48.760;2.322;2023-05-02T15:02:05;3.63;;;3.30;;
56517;SDS011;42419;48.760;2.322;2023-05-02T15:04:31;3.77;;;3.47;;
56517;SDS011;42419;48.760;2.322;2023-05-02T15:06:56;3.97;;;3.67;;
56517;SDS011;42419;48.760;2.322;2023-05-02T15:09:22;4.47;;;3.40;;
56517;SDS011;42419;48.760;2.322;2023-05-02T15:11:50;5.37;;;3.87;;
56517;SDS011;42419;48.760;2.322;2023-05-02T15:14:15;4.30;;;3.93;;
56517;SDS011;42419;48.760;2.322;2023-05-02T15:16:41;4.80;;;3.97;;
56517;SDS011;42419;48.760;2.322;2023-05-02T15:19:06;4.83;;;4.00;;
56517;SDS011;42419;48.760;2.322;2023-05-02T15:21:31;4.40;;;4.00;;
56517;SDS011;42419;48.760;2.322;2023-05-02T15:23:57;4.07;;;3.60;;
56517;SDS011;42419;48.760;2.322;2023-05-02T15:26:22;5.13;;;3.90;;